createdAt,value
2022-11-15T00:00:02.336Z,3.78
2022-11-15T00:02:48.913Z,3.08
2022-11-15T00:05:36.942Z,3.55
2022-11-15T00:08:23.386Z,3.90
2022-11-15T00:11:12.802Z,4.13
2022-11-15T00:14:02.975Z,3.78
2022-11-15T00:16:50.952Z,3.70
2022-11-15T00:19:37.630Z,3.15
2022-11-15T00:22:26.813Z,3.17
2022-11-15T00:25:13.274Z,3.30
2022-11-15T00:28:00.542Z,3.13
2022-11-15T00:30:47.343Z,3.72
2022-11-15T00:33:36.087Z,3.65
2022-11-15T00:36:22.737Z,4.15
2022-11-15T00:39:09.949Z,4.60
2022-11-15T00:41:57.017Z,3.70
2022-11-15T00:44:43.839Z,3.38
2022-11-15T00:47:31.791Z,3.80
2022-11-15T00:50:38.143Z,4.05
2022-11-15T00:53:25.153Z,4.15
2022-11-15T00:56:11.439Z,3.65
2022-11-15T00:58:58.082Z,3.28
2022-11-15T01:01:44.925Z,3.25
2022-11-15T01:04:31.616Z,3.97
2022-11-15T01:07:19.776Z,2.83
2022-11-15T01:10:07.764Z,2.85
2022-11-15T01:12:54.784Z,3.75
2022-11-15T01:15:42.734Z,3.33
2022-11-15T01:18:29.861Z,3.53
2022-11-15T01:21:19.132Z,4.00
2022-11-15T01:24:23.687Z,4.15
2022-11-15T01:27:11.015Z,3.75
2022-11-15T01:29:57.867Z,3.53
2022-11-15T01:32:44.938Z,3.92
2022-11-15T01:35:31.733Z,3.40
2022-11-15T01:38:18.459Z,3.30
2022-11-15T01:41:21.263Z,3.47
2022-11-15T01:44:45.281Z,3.70
2022-11-15T01:47:35.459Z,3.70
2022-11-15T01:50:26.108Z,3.55
2022-11-15T01:53:12.980Z,3.53
2022-11-15T01:56:00.342Z,3.72
2022-11-15T01:58:48.753Z,3.85
2022-11-15T02:01:36.586Z,3.40
2022-11-15T02:04:27.916Z,3.72
2022-11-15T02:07:18.472Z,3.10
2022-11-15T02:10:09.848Z,3.95
2022-11-15T02:12:58.946Z,3.85
2022-11-15T02:16:06.973Z,3.60
2022-11-15T02:18:59.333Z,3.40
2022-11-15T02:21:52.536Z,5.13
2022-11-15T02:25:03.475Z,3.90
2022-11-15T02:28:08.876Z,4.28
2022-11-15T02:31:02.330Z,3.72
2022-11-15T02:33:57.223Z,4.55
2022-11-15T02:36:51.215Z,3.47
2022-11-15T02:39:44.059Z,4.28
2022-11-15T02:42:58.296Z,4.10
2022-11-15T02:45:50.348Z,3.60
2022-11-15T02:48:39.985Z,3.15
2022-11-15T02:51:27.185Z,3.15
2022-11-15T02:54:17.292Z,4.45
2022-11-15T02:57:09.637Z,3.28
2022-11-15T03:00:07.435Z,3.72
2022-11-15T03:03:11.592Z,3.58
2022-11-15T03:06:11.914Z,3.70
2022-11-15T03:09:05.885Z,3.60
2022-11-15T03:12:01.982Z,3.28
2022-11-15T03:14:55.555Z,3.03
2022-11-15T03:17:48.941Z,3.65
2022-11-15T03:20:38.531Z,3.08
2022-11-15T03:23:29.410Z,2.50
2022-11-15T03:26:21.519Z,3.97
2022-11-15T03:29:12.238Z,3.30
2022-11-15T03:32:02.811Z,3.55
2022-11-15T03:34:54.241Z,2.97
2022-11-15T03:37:51.411Z,3.20
2022-11-15T03:40:42.212Z,2.85
2022-11-15T03:43:36.132Z,2.53
2022-11-15T03:46:28.229Z,2.92
2022-11-15T03:49:20.357Z,3.05
2022-11-15T03:52:07.837Z,2.40
2022-11-15T03:54:57.929Z,2.67
2022-11-15T03:57:46.850Z,2.72
2022-11-15T04:00:33.728Z,2.75
2022-11-15T04:03:20.299Z,3.28
2022-11-15T04:06:07.539Z,3.05
2022-11-15T04:08:53.968Z,3.28
2022-11-15T04:11:40.562Z,2.53
2022-11-15T04:14:28.750Z,2.60
2022-11-15T04:17:15.797Z,3.67
2022-11-15T04:20:19.796Z,3.17
2022-11-15T04:23:25.651Z,3.25
2022-11-15T04:26:15.771Z,3.03
2022-11-15T04:29:20.242Z,3.50
2022-11-15T04:32:09.281Z,2.88
2022-11-15T04:34:56.390Z,2.90
2022-11-15T04:37:48.954Z,3.45
2022-11-15T04:40:37.019Z,2.20
2022-11-15T04:43:24.126Z,3.40
2022-11-15T04:46:11.196Z,4.18
2022-11-15T04:49:06.706Z,2.85
2022-11-15T04:51:53.385Z,2.35
2022-11-15T04:54:40.168Z,2.88
2022-11-15T04:57:27.166Z,2.95
2022-11-15T05:00:17.202Z,3.65
2022-11-15T05:03:21.284Z,2.60
2022-11-15T05:06:09.674Z,2.63
2022-11-15T05:08:57.036Z,2.97
2022-11-15T05:11:43.972Z,3.20
2022-11-15T05:14:30.932Z,2.53
2022-11-15T05:17:17.555Z,2.90
2022-11-15T05:20:04.980Z,2.92
2022-11-15T05:22:53.087Z,2.28
2022-11-15T05:25:39.924Z,2.80
2022-11-15T05:28:26.527Z,3.00
2022-11-15T05:31:15.298Z,2.97
2022-11-15T05:34:03.321Z,2.50
2022-11-15T05:36:50.888Z,2.60
2022-11-15T05:39:45.540Z,2.22
2022-11-15T05:42:32.802Z,2.15
2022-11-15T05:45:25.446Z,2.83
2022-11-15T05:48:15.126Z,2.58
2022-11-15T05:51:02.714Z,2.50
2022-11-15T05:53:49.867Z,2.83
2022-11-15T05:56:38.023Z,2.35
2022-11-15T05:59:24.810Z,3.75
2022-11-15T06:02:11.937Z,2.33
2022-11-15T06:04:58.288Z,2.70
2022-11-15T06:07:45.368Z,2.33
2022-11-15T06:10:32.320Z,2.78
2022-11-15T06:13:20.551Z,3.03
2022-11-15T06:16:07.887Z,2.72
2022-11-15T06:18:54.911Z,3.35
2022-11-15T06:21:41.307Z,3.22
2022-11-15T06:24:28.000Z,3.22
2022-11-15T06:27:14.973Z,3.58
2022-11-15T06:30:03.146Z,3.70
2022-11-15T06:32:50.030Z,3.83
2022-11-15T06:35:38.248Z,4.05
2022-11-15T06:38:25.166Z,3.58
2022-11-15T06:41:13.067Z,2.70
2022-11-15T06:43:59.934Z,3.50
2022-11-15T06:46:47.762Z,3.15
2022-11-15T06:49:34.364Z,3.30
2022-11-15T06:52:22.622Z,3.40
2022-11-15T06:55:10.876Z,3.42
2022-11-15T06:57:57.763Z,3.63
2022-11-15T07:00:46.318Z,3.50
2022-11-15T07:03:36.574Z,3.55
2022-11-15T07:06:23.229Z,3.00
2022-11-15T07:09:09.912Z,3.67
2022-11-15T07:11:57.242Z,3.55
2022-11-15T07:14:44.223Z,3.35
2022-11-15T07:17:31.742Z,3.20
2022-11-15T07:20:20.097Z,3.03
2022-11-15T07:23:08.079Z,2.78
2022-11-15T07:25:54.913Z,2.95
2022-11-15T07:28:41.518Z,2.85
2022-11-15T07:31:28.582Z,2.25
2022-11-15T07:34:15.151Z,3.05
2022-11-15T07:37:35.571Z,2.20
2022-11-15T07:40:22.368Z,2.70
2022-11-15T07:43:10.513Z,2.95
2022-11-15T07:45:59.498Z,2.95
2022-11-15T07:48:46.487Z,2.42
2022-11-15T07:51:33.104Z,3.28
2022-11-15T07:54:21.376Z,2.80
2022-11-15T07:57:10.140Z,2.95
2022-11-15T07:59:57.028Z,2.30
2022-11-15T08:02:43.895Z,2.65
2022-11-15T08:05:30.835Z,2.85
2022-11-15T08:08:17.593Z,2.22
2022-11-15T08:11:06.251Z,2.58
2022-11-15T08:13:52.803Z,2.75
2022-11-15T08:16:39.820Z,2.72
2022-11-15T08:19:26.478Z,2.47
2022-11-15T08:22:14.412Z,2.13
2022-11-15T08:25:00.933Z,2.75
2022-11-15T08:27:49.304Z,2.83
2022-11-15T08:30:38.799Z,2.35
2022-11-15T08:33:25.676Z,2.97
2022-11-15T08:36:16.363Z,2.55
2022-11-15T08:39:03.459Z,2.70
2022-11-15T08:41:50.364Z,2.38
2022-11-15T08:44:38.556Z,2.00
2022-11-15T08:47:32.583Z,2.28
2022-11-15T08:50:19.171Z,2.67
2022-11-15T08:53:08.093Z,2.80
2022-11-15T08:55:55.073Z,1.95
2022-11-15T08:58:43.619Z,2.20
2022-11-15T09:01:33.603Z,3.10
2022-11-15T09:04:20.860Z,2.17
2022-11-15T09:07:07.711Z,2.65
2022-11-15T09:09:54.445Z,2.20
2022-11-15T09:12:41.218Z,2.20
2022-11-15T09:15:28.518Z,2.25
2022-11-15T09:18:16.548Z,2.40
2022-11-15T09:21:04.760Z,2.58
2022-11-15T09:23:53.121Z,2.90
2022-11-15T09:26:39.811Z,1.98
2022-11-15T09:29:26.419Z,2.30
2022-11-15T09:32:13.197Z,2.35
2022-11-15T09:35:01.286Z,2.55
2022-11-15T09:37:52.190Z,1.85
2022-11-15T09:40:42.273Z,2.25
2022-11-15T09:43:37.206Z,2.13
2022-11-15T09:46:33.044Z,2.22
2022-11-15T09:49:25.019Z,3.05
2022-11-15T09:51:56.250Z,2.20
2022-11-15T09:54:53.519Z,2.50
2022-11-15T09:57:23.514Z,1.85
2022-11-15T10:00:23.732Z,2.50
2022-11-15T10:03:06.255Z,2.22
2022-11-15T10:05:39.831Z,2.55
2022-11-15T10:08:22.301Z,2.40
2022-11-15T10:11:15.731Z,2.38
2022-11-15T10:13:47.203Z,2.25
2022-11-15T10:16:37.581Z,2.25
2022-11-15T10:19:15.372Z,2.00
2022-11-15T10:21:58.798Z,2.55
2022-11-15T10:24:30.455Z,3.63
2022-11-15T10:26:59.189Z,2.90
2022-11-15T10:29:27.685Z,3.03
2022-11-15T10:31:55.827Z,2.70
2022-11-15T10:34:25.965Z,2.72
2022-11-15T10:36:58.424Z,2.83
2022-11-15T10:39:28.564Z,3.85
2022-11-15T10:41:58.006Z,3.10
2022-11-15T10:44:28.735Z,3.90
2022-11-15T10:47:37.696Z,3.80
2022-11-15T10:50:27.636Z,2.70
2022-11-15T10:52:56.363Z,3.42
2022-11-15T10:55:30.048Z,2.85
2022-11-15T10:58:04.710Z,2.35
2022-11-15T11:00:36.693Z,2.85
2022-11-15T11:03:08.996Z,2.95
2022-11-15T11:05:42.226Z,2.25
2022-11-15T11:08:24.481Z,2.30
2022-11-15T11:11:02.775Z,2.13
2022-11-15T11:13:34.187Z,3.00
2022-11-15T11:16:42.596Z,2.80
2022-11-15T11:19:22.089Z,2.67
2022-11-15T11:22:00.295Z,2.72
2022-11-15T11:24:35.317Z,2.78
2022-11-15T11:27:28.662Z,3.08
2022-11-15T11:30:08.359Z,3.30
2022-11-15T11:33:05.792Z,2.20
2022-11-15T11:35:40.315Z,2.55
2022-11-15T11:38:25.002Z,1.95
2022-11-15T11:41:07.562Z,2.10
2022-11-15T11:43:49.941Z,2.40
2022-11-15T11:46:36.991Z,2.10
2022-11-15T11:49:11.509Z,2.20
2022-11-15T11:51:44.481Z,2.25
2022-11-15T11:54:18.079Z,2.28
2022-11-15T11:56:47.396Z,1.80
2022-11-15T11:59:24.827Z,1.67
2022-11-15T12:01:53.684Z,1.85
2022-11-15T12:04:28.026Z,2.47
2022-11-15T12:07:01.377Z,1.83
2022-11-15T12:09:35.016Z,2.13
2022-11-15T12:12:09.630Z,2.38
2022-11-15T12:14:44.977Z,2.08
2022-11-15T12:17:14.294Z,1.80
2022-11-15T12:19:43.905Z,2.55
2022-11-15T12:22:18.806Z,1.90
2022-11-15T12:24:52.676Z,1.40
2022-11-15T12:27:28.346Z,2.15
2022-11-15T12:30:02.137Z,2.20
2022-11-15T12:32:34.122Z,1.65
2022-11-15T12:35:22.286Z,1.48
2022-11-15T12:37:52.925Z,1.92
2022-11-15T12:40:25.198Z,1.58
2022-11-15T12:43:03.309Z,2.10
2022-11-15T12:45:34.861Z,2.38
2022-11-15T12:48:42.648Z,1.80
2022-11-15T12:51:10.779Z,1.85
2022-11-15T12:53:39.407Z,1.92
2022-11-15T12:56:20.923Z,2.20
2022-11-15T12:58:51.928Z,1.90
2022-11-15T13:01:58.556Z,2.30
2022-11-15T13:04:29.968Z,2.05
2022-11-15T13:07:00.899Z,2.22
2022-11-15T13:09:57.301Z,2.30
2022-11-15T13:12:55.359Z,2.03
2022-11-15T13:16:01.112Z,1.90
2022-11-15T13:18:37.866Z,2.88
2022-11-15T13:21:37.744Z,2.17
2022-11-15T13:24:07.350Z,2.60
2022-11-15T13:26:35.960Z,2.50
2022-11-15T13:29:04.310Z,2.65
2022-11-15T13:31:38.431Z,2.83
2022-11-15T13:34:44.639Z,3.03
2022-11-15T13:37:28.782Z,2.35
2022-11-15T13:39:56.963Z,2.80
2022-11-15T13:42:31.406Z,3.35
2022-11-15T13:45:01.045Z,2.78
2022-11-15T13:47:30.839Z,2.55
2022-11-15T13:50:02.239Z,3.30
2022-11-15T13:52:35.518Z,2.83
2022-11-15T13:55:11.110Z,2.45
2022-11-15T13:57:45.414Z,2.80
2022-11-15T14:00:36.919Z,2.58
2022-11-15T14:03:15.354Z,2.60
2022-11-15T14:05:46.303Z,2.88
2022-11-15T14:08:25.415Z,3.03
2022-11-15T14:11:09.605Z,2.50
2022-11-15T14:13:38.017Z,2.90
2022-11-15T14:16:21.349Z,2.80
2022-11-15T14:18:51.571Z,3.28
2022-11-15T14:21:22.669Z,2.67
2022-11-15T14:23:51.640Z,2.47
2022-11-15T14:26:31.324Z,2.83
2022-11-15T14:28:59.737Z,2.63
2022-11-15T14:31:28.264Z,3.30
2022-11-15T14:33:56.347Z,2.70
2022-11-15T14:36:25.934Z,2.80
2022-11-15T14:38:55.240Z,2.92
2022-11-15T14:41:25.788Z,3.05
2022-11-15T14:43:54.938Z,2.95
2022-11-15T14:46:22.957Z,3.28
2022-11-15T14:48:51.249Z,3.38
2022-11-15T14:51:20.252Z,3.22
2022-11-15T14:53:59.889Z,3.05
2022-11-15T14:56:28.138Z,3.00
2022-11-15T14:58:56.963Z,2.72
2022-11-15T15:01:27.810Z,2.22
2022-11-15T15:03:58.094Z,2.30
2022-11-15T15:06:26.930Z,2.38
2022-11-15T15:08:55.088Z,2.72
2022-11-15T15:11:26.977Z,1.80
2022-11-15T15:13:57.961Z,2.00
2022-11-15T15:16:26.362Z,2.47
2022-11-15T15:18:56.169Z,2.60
2022-11-15T15:21:26.203Z,2.90
2022-11-15T15:23:56.034Z,2.70
2022-11-15T15:26:26.422Z,2.53
2022-11-15T15:28:55.107Z,2.97
2022-11-15T15:31:23.536Z,2.78
2022-11-15T15:33:52.256Z,3.10
2022-11-15T15:36:21.505Z,3.35
2022-11-15T15:38:49.812Z,2.65
2022-11-15T15:41:18.876Z,3.10
2022-11-15T15:43:48.730Z,2.65
2022-11-15T15:46:18.753Z,3.15
2022-11-15T15:48:48.002Z,3.45
2022-11-15T15:51:20.417Z,2.42
2022-11-15T15:53:49.736Z,2.90
2022-11-15T15:56:18.540Z,2.50
2022-11-15T15:59:08.025Z,2.17
2022-11-15T16:01:36.563Z,2.80
2022-11-15T16:04:05.000Z,2.72
2022-11-15T16:06:39.266Z,2.47
2022-11-15T16:09:15.269Z,2.55
2022-11-15T16:11:45.676Z,2.38
2022-11-15T16:14:15.712Z,2.75
2022-11-15T16:17:02.876Z,2.67
2022-11-15T16:19:35.500Z,2.65
2022-11-15T16:22:09.162Z,2.10
2022-11-15T16:24:56.174Z,2.80
2022-11-15T16:27:42.034Z,3.25
2022-11-15T16:37:34.920Z,3.00
2022-11-15T16:40:29.012Z,2.72
2022-11-15T16:44:00.351Z,2.65
2022-11-15T16:46:51.994Z,2.90
2022-11-15T16:49:23.364Z,2.90
2022-11-15T16:51:55.391Z,3.13
2022-11-15T16:54:24.963Z,2.72
2022-11-15T16:56:53.814Z,2.85
2022-11-15T16:59:22.174Z,2.88
2022-11-15T17:01:53.702Z,3.22
2022-11-15T17:04:24.575Z,3.60
2022-11-15T17:06:53.354Z,4.15
2022-11-15T17:09:24.833Z,3.42
2022-11-15T17:11:53.942Z,3.47
2022-11-15T17:14:22.244Z,3.17
2022-11-15T17:16:50.640Z,3.42
2022-11-15T17:19:21.176Z,3.13
2022-11-15T17:21:50.873Z,3.90
2022-11-15T17:24:20.932Z,3.03
2022-11-15T17:26:49.650Z,3.20
2022-11-15T17:29:18.603Z,3.70
2022-11-15T17:31:47.000Z,3.17
2022-11-15T17:34:15.107Z,3.10
2022-11-15T17:36:43.976Z,2.42
2022-11-15T17:39:13.580Z,4.38
2022-11-15T17:41:41.912Z,3.10
2022-11-15T17:44:10.175Z,4.10
2022-11-15T17:46:38.269Z,4.18
2022-11-15T17:49:06.349Z,3.58
2022-11-15T17:51:34.874Z,3.58
2022-11-15T17:54:03.252Z,4.35
2022-11-15T17:56:40.745Z,4.03
2022-11-15T17:59:14.874Z,3.95
2022-11-15T18:01:45.459Z,3.67
2022-11-15T18:04:15.040Z,4.72
2022-11-15T18:06:43.422Z,3.85
2022-11-15T18:09:12.256Z,4.63
2022-11-15T18:11:44.800Z,4.00
2022-11-15T18:14:15.603Z,4.32
2022-11-15T18:16:43.753Z,4.85
2022-11-15T18:19:15.359Z,4.70
2022-11-15T18:22:01.302Z,4.15
2022-11-15T18:24:31.390Z,5.20
2022-11-15T18:27:19.111Z,5.68
2022-11-15T18:29:47.365Z,6.20
2022-11-15T18:32:17.909Z,6.70
2022-11-15T18:34:46.079Z,6.22
2022-11-15T18:37:14.286Z,6.60
2022-11-15T18:39:42.759Z,6.93
2022-11-15T18:42:10.776Z,5.40
2022-11-15T18:44:40.521Z,5.68
2022-11-15T18:47:08.578Z,5.60
2022-11-15T18:49:39.530Z,6.38
2022-11-15T18:52:08.474Z,5.85
2022-11-15T18:54:53.025Z,6.32
2022-11-15T18:57:21.065Z,5.63
2022-11-15T18:59:50.589Z,5.15
2022-11-15T19:02:18.975Z,4.82
2022-11-15T19:04:47.280Z,5.05
2022-11-15T19:07:15.686Z,5.43
2022-11-15T19:09:44.002Z,5.20
2022-11-15T19:12:12.419Z,4.80
2022-11-15T19:14:40.481Z,4.60
2022-11-15T19:17:10.046Z,4.97
2022-11-15T19:19:38.364Z,5.57
2022-11-15T19:22:06.643Z,5.97
2022-11-15T19:24:35.108Z,5.53
2022-11-15T19:27:03.561Z,5.85
2022-11-15T19:29:31.856Z,5.18
2022-11-15T19:31:59.932Z,5.38
2022-11-15T19:34:29.587Z,5.78
2022-11-15T19:36:57.748Z,5.10
2022-11-15T19:39:25.827Z,6.03
2022-11-15T19:41:54.045Z,6.40
2022-11-15T19:44:22.749Z,7.00
2022-11-15T19:46:53.465Z,5.93
2022-11-15T19:49:22.239Z,6.88
2022-11-15T19:51:51.739Z,6.13
2022-11-15T19:54:19.808Z,6.53
2022-11-15T19:56:47.942Z,7.15
2022-11-15T19:59:17.308Z,6.25
2022-11-15T20:01:45.736Z,6.57
2022-11-15T20:04:13.809Z,7.25
2022-11-15T20:06:43.469Z,7.40
2022-11-15T20:09:15.667Z,6.82
2022-11-15T20:11:43.975Z,7.20
2022-11-15T20:14:13.246Z,7.75
2022-11-15T20:16:41.470Z,7.05
2022-11-15T20:19:09.890Z,6.03
2022-11-15T20:21:38.007Z,6.82
2022-11-15T20:24:07.436Z,7.53
2022-11-15T20:26:36.785Z,5.85
2022-11-15T20:29:05.096Z,5.93
2022-11-15T20:31:33.647Z,5.88
2022-11-15T20:34:01.810Z,5.60
2022-11-15T20:36:30.216Z,6.60
2022-11-15T20:38:59.542Z,5.10
2022-11-15T20:41:28.310Z,4.70
2022-11-15T20:43:57.956Z,5.78
2022-11-15T20:46:25.999Z,5.18
2022-11-15T20:48:54.255Z,5.38
2022-11-15T20:51:22.427Z,5.03
2022-11-15T20:53:50.852Z,5.65
2022-11-15T20:56:22.374Z,5.80
2022-11-15T20:58:51.385Z,5.35
2022-11-15T21:01:23.856Z,4.63
2022-11-15T21:03:52.976Z,5.93
2022-11-15T21:06:21.580Z,5.15
2022-11-15T21:09:07.851Z,5.25
2022-11-15T21:11:53.650Z,5.00
2022-11-15T21:14:22.131Z,5.82
2022-11-15T21:16:51.830Z,5.57
2022-11-15T21:19:24.096Z,4.70
2022-11-15T21:21:56.026Z,5.93
2022-11-15T21:24:24.855Z,5.53
2022-11-15T21:26:53.436Z,5.15
2022-11-15T21:29:21.670Z,5.13
2022-11-15T21:31:53.967Z,5.40
2022-11-15T21:34:22.559Z,5.47
2022-11-15T21:36:50.836Z,5.30
2022-11-15T21:39:19.121Z,6.05
2022-11-15T21:41:47.340Z,5.72
2022-11-15T21:44:15.653Z,6.22
2022-11-15T21:46:44.157Z,5.43
2022-11-15T21:49:13.529Z,6.25
2022-11-15T21:51:42.039Z,6.65
2022-11-15T21:54:10.519Z,5.85
2022-11-15T21:56:38.747Z,4.90
2022-11-15T21:59:06.797Z,5.53
2022-11-15T22:01:52.278Z,5.80
2022-11-15T22:04:23.953Z,5.30
2022-11-15T22:06:52.453Z,6.22
2022-11-15T22:09:20.596Z,5.32
2022-11-15T22:11:48.816Z,5.03
2022-11-15T22:14:17.481Z,5.65
2022-11-15T22:16:50.376Z,5.35
2022-11-15T22:19:18.606Z,6.35
2022-11-15T22:21:48.254Z,6.38
2022-11-15T22:24:16.716Z,6.20
2022-11-15T22:26:44.894Z,6.22
2022-11-15T22:29:12.972Z,5.35
2022-11-15T22:31:41.135Z,6.32
2022-11-15T22:34:09.442Z,6.03
2022-11-15T22:36:58.446Z,6.65
2022-11-15T22:39:28.195Z,7.72
2022-11-15T22:41:56.358Z,6.65
2022-11-15T22:44:24.670Z,7.00
2022-11-15T22:46:52.891Z,6.32
2022-11-15T22:49:21.328Z,6.47
2022-11-15T22:51:49.445Z,6.03
2022-11-15T22:54:17.943Z,6.03
2022-11-15T22:56:47.694Z,5.75
2022-11-15T22:59:15.888Z,6.15
2022-11-15T23:01:44.576Z,5.60
2022-11-15T23:04:12.945Z,4.93
2022-11-15T23:06:41.150Z,5.50
2022-11-15T23:09:11.998Z,5.85
2022-11-15T23:11:58.078Z,4.25
2022-11-15T23:14:27.970Z,4.78
2022-11-15T23:16:56.287Z,4.60
2022-11-15T23:19:24.642Z,5.60
2022-11-15T23:22:10.127Z,5.90
2022-11-15T23:24:38.335Z,5.50
2022-11-15T23:27:09.191Z,6.15
2022-11-15T23:29:52.729Z,4.50
2022-11-15T23:32:38.795Z,5.25
2022-11-15T23:35:07.580Z,6.35
2022-11-15T23:37:35.969Z,5.25
2022-11-15T23:40:04.630Z,6.45
2022-11-15T23:42:32.808Z,6.00
2022-11-15T23:45:02.851Z,5.50
2022-11-15T23:47:31.169Z,5.63
2022-11-15T23:49:59.341Z,5.50
2022-11-15T23:52:27.754Z,6.80
2022-11-15T23:54:55.904Z,5.10
2022-11-15T23:57:24.306Z,4.75
2022-11-15T23:59:52.644Z,5.18
